Flight Track Log - Related Links

Times and Time Zones

All times are in EST time to prevent confusion due to time zone crossing. See the N510SR flight status page for this flight to view local times or setup timezone preferences in your user account.

Time Position Orientation Groundspeed Altitude Reporting Facility
EST Latitude Longitude Course Direction KTS MPH feet Rate Location/Type
Sun 08:59:00 PM 25.9111 -80.2639 89° East 184 212 600  Level Miami Center
Sun 08:59:43 PM 25.9119 -80.2269 89° East 178 205 2,200 1,615 Climbing Miami Center
Sun 09:00:44 PM 25.9072 -80.1667 95° East 199 229 3,400 1,165 Climbing Miami Center
Sun 09:01:26 PM 25.9125 -80.1139 84° East 234 269 4,200 1,800 Climbing Miami Center
Sun 09:01:44 PM 25.9089 -80.0953 102° East 250 288 5,200 2,400 Climbing Miami Center
Sun 09:02:26 PM 25.9164 -80.0375 82° East 252 290 6,600 2,656 Climbing Miami Center
Sun 09:02:45 PM 25.9147 -80.0100 94° East 266 306 7,900 2,600 Climbing Miami Center
Sun 09:03:26 PM 25.9242 -79.9592 78° East 291 335 9,200 1,663 Climbing Miami Center
Sun 09:04:26 PM 25.9322 -79.8694 84° East 291 335 10,700 1,450 Climbing Miami Center
Sun 09:05:26 PM 25.9408 -79.7633 85° East 313 360 12,100 1,700 Climbing Miami Center
Sun 09:06:26 PM 25.9533 -79.6506 83° East 345 397 14,100 1,900 Climbing Miami Center
Sun 09:07:26 PM 25.9619 -79.5211 86° East 371 427 15,900 1,700 Climbing Miami Center
Sun 09:08:26 PM 25.9703 -79.4106 85° East 393 452 17,500 1,450 Climbing Miami Center
Sun 09:09:26 PM 25.9581 -79.2717 96° East 404 465 18,800 1,300 Climbing Miami Center
Sun 09:10:26 PM 25.9433 -79.1533 98° East 415 478 20,100 1,300 Climbing Miami Center
Sun 09:11:26 PM 25.8908 -79.0322 116° Southeast 415 478 21,400 1,350 Climbing Miami Center
Sun 09:12:26 PM 25.8194 -78.9017 121° Southeast 432 497 22,800 1,250 Climbing Miami Center
Sun 09:13:26 PM 25.7522 -78.7831 122° Southeast 449 517 23,900 1,100 Climbing Miami Center
Sun 09:14:26 PM 25.6889 -78.6575 119° Southeast 461 531 25,000 1,050 Climbing Miami Center
Sun 09:15:26 PM 25.6214 -78.5319 121° Southeast 467 537 26,000 950 Climbing Miami Center
Sun 09:16:26 PM 25.5539 -78.4067 121° Southeast 472 543 26,900 1,000 Climbing Miami Center
Sun 09:17:26 PM 25.4842 -78.2769 121° Southeast 477 549 28,000 1,200 Climbing Miami Center
Sun 09:18:26 PM 25.4164 -78.1494 120° Southeast 482 555 29,300 1,200 Climbing Miami Center
Sun 09:19:26 PM 25.3464 -78.0222 121° Southeast 482 555 30,400 1,050 Climbing Miami Center
Sun 09:20:26 PM 25.2844 -77.9114 122° Southeast 477 549 31,400 1,050 Climbing Miami Center
Sun 09:21:26 PM 25.2269 -77.7778 115° Southeast 477 549 32,500 1,100 Climbing Miami Center
Sun 09:22:26 PM 25.1753 -77.6419 113° Southeast 477 549 33,600 1,000 Climbing Miami Center
Sun 09:23:26 PM 25.1175 -77.4969 114° Southeast 477 549 34,500 1,200 Climbing Miami Center
Sun 09:24:26 PM 25.0658 -77.3519 111° Southeast 482 555 36,000 1,300 Climbing Miami Center
Sun 09:25:26 PM 25.0097 -77.2189 115° Southeast 487 560 37,100 950 Climbing Miami Center
Sun 09:26:26 PM 24.9578 -77.0881 114° Southeast 476 548 37,900 900 Climbing Miami Center
Sun 09:27:26 PM 24.8869 -76.9642 122° Southeast 471 542 38,900 600 Climbing Miami Center
Sun 09:28:26 PM 24.8181 -76.8450 122° Southeast 471 542 39,100 100 Climbing Miami Center
Sun 09:29:26 PM 24.7489 -76.7239 122° Southeast 471 542 39,100 50 Level Miami Center
Sun 09:30:26 PM 24.6756 -76.5958 122° Southeast 477 549 39,200 200 Climbing Miami Center
Sun 09:31:26 PM 24.5981 -76.4681 124° Southeast 489 563 39,500 300 Climbing Miami Center
Sun 09:32:26 PM 24.5306 -76.3403 120° Southeast 489 563 39,800 300 Climbing Miami Center
Sun 09:33:26 PM 24.4550 -76.2197 125° Southeast 489 563 40,100 250 Climbing Miami Center
Sun 09:34:26 PM 24.3811 -76.0944 123° Southeast 489 563 40,300 100 Climbing Miami Center
Sun 09:35:26 PM 24.3072 -75.9650 122° Southeast 489 563 40,300 200 Level Miami Center
Sun 09:36:26 PM 24.2333 -75.8378 122° Southeast 495 570 40,700 350 Climbing Miami Center
Sun 09:37:26 PM 24.1658 -75.7292 124° Southeast 495 570 41,000 200 Climbing Miami Center
Sun 09:38:26 PM 24.0894 -75.6000 123° Southeast 495 570 41,100 50 Climbing Miami Center
Sun 09:39:26 PM 24.0153 -75.4758 123° Southeast 495 570 41,100  Level Miami Center
Sun 09:40:26 PM 23.9408 -75.3469 122° Southeast 495 570 41,100  Level Miami Center
Sun 09:41:26 PM 23.8642 -75.2228 124° Southeast 495 570 41,100  Level Miami Center
Sun 09:42:26 PM 23.7875 -75.0967 124° Southeast 500 575 41,100  Level Miami Center
Sun 09:43:26 PM 23.7150 -74.9728 123° Southeast 500 575 41,100  Level Miami Center
Sun 09:44:26 PM 23.6381 -74.8447 123° Southeast 500 575 41,100  Level Miami Center
Sun 09:45:26 PM 23.5611 -74.7214 124° Southeast 500 575 41,100  Level Miami Center
Sun 09:46:26 PM 23.4842 -74.5981 124° Southeast 500 575 41,100  Level Miami Center
Sun 09:47:26 PM 23.4089 -74.4706 123° Southeast 500 575 41,100  Level Miami Center
Sun 09:48:26 PM 23.3297 -74.3453 125° Southeast 500 575 41,100  Level Miami Center
Sun 09:49:26 PM 23.2522 -74.2200 124° Southeast 500 575 41,100  Level Miami Center
Sun 09:50:26 PM 23.1750 -74.0997 125° Southeast 500 575 41,100  Level Miami Center
Sun 09:51:26 PM 23.1058 -73.9747 121° Southeast 500 575 41,100  Level Miami Center
Sun 09:52:26 PM 23.0303 -73.8522 124° Southeast 500 575 41,100  Level Miami Center
Sun 09:53:28 PM 22.9483 -73.7303 126° Southeast 495 570 41,100  Level Miami Center
Sun 09:54:27 PM 22.8769 -73.6078 122° Southeast 495 570 41,100  Level Miami Center
Sun 09:55:27 PM 22.8011 -73.4881 124° Southeast 495 570 41,100  Level Miami Center
Sun 09:56:28 PM 22.7144 -73.3531 125° Southeast 489 563 41,100  Level Miami Center
Sun 09:57:29 PM 22.6386 -73.2314 124° Southeast 489 563 41,100  Level Miami Center
Sun 09:58:26 PM 22.5731 -73.1208 123° Southeast 489 563 41,100  Level Miami Center
Sun 09:59:26 PM 22.4969 -72.9994 124° Southeast 484 557 41,100  Level Miami Center
Sun 10:00:27 PM 22.4208 -72.8758 124° Southeast 484 557 41,100  Level Miami Center
Sun 10:01:26 PM 22.3425 -72.7550 125° Southeast 484 557 41,100  Level Miami Center
Sun 10:02:27 PM 22.2658 -72.6317 124° Southeast 489 563 41,100  Level Miami Center
Sun 10:03:28 PM 22.1894 -72.5108 124° Southeast 489 563 41,100  Level Miami Center
Sun 10:04:27 PM 22.1064 -72.3792 124° Southeast 489 563 41,100  Level Miami Center
Sun 10:05:29 PM 22.0275 -72.2564 125° Southeast 489 563 41,100  Level Miami Center
Sun 10:06:27 PM 21.9508 -72.1361 124° Southeast 489 563 41,100  Level Miami Center
Sun 10:07:28 PM 21.8761 -72.0136 123° Southeast 489 563 41,100  Level Miami Center
Sun 10:08:28 PM 21.7969 -71.8914 125° Southeast 489 563 41,100  Level Miami Center
Sun 10:09:27 PM 21.7200 -71.7714 125° Southeast 489 563 41,100  Level Miami Center
Sun 10:10:27 PM 21.6408 -71.6494 125° Southeast 489 563 41,100  Level Miami Center
Sun 10:11:26 PM 21.5636 -71.5297 125° Southeast 494 568 41,100  Level Miami Center
Sun 10:12:26 PM 21.4864 -71.4103 125° Southeast 489 563 41,100  Level Miami Center
Sun 10:13:27 PM 21.4136 -71.3019 126° Southeast 489 563 41,100  Level Miami Center
Sun 10:14:29 PM 21.3233 -71.1722 127° Southeast 489 563 41,100  Level Miami Center
Sun 10:15:28 PM 21.2544 -71.0550 122° Southeast 499 574 41,100  Level Miami Center
Sun 10:16:29 PM 21.1789 -70.9336 124° Southeast 499 574 41,100  Level Miami Center
Sun 10:17:26 PM 21.1033 -70.8169 125° Southeast 494 568 41,100  Level Miami Center
Sun 10:18:28 PM 21.0278 -70.6983 124° Southeast 494 568 41,100  Level Miami Center
Sun 10:19:28 PM 20.9522 -70.5797 124° Southeast 489 563 41,100  Level Miami Center
Sun 10:20:26 PM 20.8722 -70.4614 126° Southeast 489 563 41,100  Level Miami Center
Sun 10:21:28 PM 20.7942 -70.3408 125° Southeast 489 563 41,100  Level Miami Center
Sun 10:22:29 PM 20.7161 -70.2206 125° Southeast 494 568 41,100  Level Miami Center
Sun 10:23:27 PM 20.6361 -70.1006 125° Southeast 494 568 41,100  Level Miami Center
Sun 10:24:29 PM 20.5597 -69.9781 124° Southeast 494 568 41,100  Level Miami Center
Sun 10:25:27 PM 20.4775 -69.8586 126° Southeast 501 577 41,100  Level Miami Center
Sun 10:26:27 PM 20.3992 -69.7411 125° Southeast 501 577 41,100  Level Miami Center
Sun 10:27:28 PM 20.3208 -69.6214 125° Southeast 501 577 41,100  Level Miami Center
Sun 10:28:29 PM 20.2422 -69.4997 125° Southeast 501 577 41,100  Level Miami Center
Sun 10:29:27 PM 20.1594 -69.3828 127° Southeast 501 577 41,100  Level Miami Center
Sun 10:30:28 PM 20.0831 -69.2658 125° Southeast 496 571 41,100  Level Miami Center
Sun 10:31:27 PM 20.0044 -69.1467 125° Southeast 496 571 41,100  Level Miami Center
Sun 10:32:29 PM 19.9258 -69.0300 126° Southeast 496 571 41,100  Level Miami Center
Sun 10:33:28 PM 19.8450 -68.9136 126° Southeast 496 571 41,100  Level Miami Center
Sun 10:34:29 PM 19.7644 -68.8017 127° Southeast 490 564 41,100  Level Miami Center
Sun 10:35:27 PM 19.6794 -68.6858 128° Southeast 490 564 41,100  Level Miami Center
Sun 10:36:27 PM 19.5925 -68.5744 130° Southeast 490 564 41,100 -44 Level Miami Center
Sun 10:37:42 PM 19.4833 -68.4333 129° Southeast 490 564 41,000 -44 Descending San Juan Center
Sun 10:38:42 PM 19.4000 -68.3167 127° Southeast 490 564 41,000  Level San Juan Center
Sun 10:39:42 PM 19.3167 -68.2000 127° Southeast 490 564 41,000  Level San Juan Center
Sun 10:40:42 PM 19.2333 -68.0833 127° Southeast 490 564 41,000  Level San Juan Center
Sun 10:41:43 PM 19.1333 -67.9667 132° Southeast 500 575 41,000  Level San Juan Center
Sun 10:42:43 PM 19.0500 -67.8500 127° Southeast 490 564 41,000  Level San Juan Center
Sun 10:43:43 PM 18.9667 -67.7500 131° Southeast 490 564 41,000  Level San Juan Center
Sun 10:44:43 PM 18.8833 -67.6333 127° Southeast 500 575 41,000  Level San Juan Center
Sun 10:45:43 PM 18.8000 -67.5167 127° Southeast 490 564 41,000  Level San Juan Center
Sun 10:46:43 PM 18.7167 -67.4000 127° Southeast 500 575 41,000  Level San Juan Center
Sun 10:47:43 PM 18.6333 -67.2833 127° Southeast 500 575 41,000  Level San Juan Center
Sun 10:48:43 PM 18.5500 -67.1667 127° Southeast 490 564 41,000  Level San Juan Center
Sun 10:49:43 PM 18.4500 -67.0667 137° Southeast 480 552 41,000  Level San Juan Center
Sun 10:50:44 PM 18.3500 -66.9667 136° Southeast 490 564 41,000  Level San Juan Center
Sun 10:51:44 PM 18.2333 -66.8833 146° Southeast 490 564 41,000  Level San Juan Center
Sun 10:52:44 PM 18.1333 -66.8000 142° Southeast 490 564 41,000  Level San Juan Center
Sun 10:53:44 PM 18.0333 -66.7000 136° Southeast 500 575 41,000  Level San Juan Center
Sun 10:54:44 PM 17.9167 -66.6167 146° Southeast 480 552 41,000  Level San Juan Center
Sun 10:55:44 PM 17.8167 -66.5167 136° Southeast 490 564 41,000  Level San Juan Center
Sun 10:56:44 PM 17.7000 -66.4167 141° Southeast 500 575 41,000  Level San Juan Center
Sun 10:57:45 PM 17.5833 -66.3167 141° Southeast 500 575 41,000  Level San Juan Center
Sun 10:58:45 PM 17.4833 -66.2333 142° Southeast 490 564 41,000  Level San Juan Center
Sun 10:59:45 PM 17.3667 -66.1333 141° Southeast 490 564 41,000  Level San Juan Center
Sun 11:00:45 PM 17.2667 -66.0500 141° Southeast 490 564 41,000  Level San Juan Center
Sun 11:01:45 PM 17.1667 -65.9667 141° Southeast 490 564 41,000  Level San Juan Center
Sun 11:02:45 PM 17.0500 -65.8667 141° Southeast 490 564 41,000  Level San Juan Center
Sun 11:03:46 PM 16.9500 -65.7833 141° Southeast 490 564 41,000  Level San Juan Center
Sun 11:04:46 PM 16.8500 -65.6833 136° Southeast 490 564 41,000  Level San Juan Center
Sun 11:05:46 PM 16.7500 -65.6000 141° Southeast 480 552 41,000  Level San Juan Center
Sun 11:06:46 PM 16.6333 -65.5167 146° Southeast 490 564 41,000  Level San Juan Center
Sun 11:07:46 PM 16.5333 -65.4167 136° Southeast 480 552 41,000  Level San Juan Center
Sun 11:08:46 PM 16.4333 -65.3333 141° Southeast 490 564 41,000  Level San Juan Center
Sun 11:09:46 PM 16.3167 -65.2500 146° Southeast 490 564 41,000  Level San Juan Center
Sun 11:10:46 PM 16.2167 -65.1500 136° Southeast 480 552 41,000  Level San Juan Center
Sun 11:11:46 PM 16.1000 -65.0667 146° Southeast 500 575 41,000  Level San Juan Center
Sun 11:12:46 PM 15.9833 -64.9667 141° Southeast 480 552 41,000  Level San Juan Center
Sun 11:13:47 PM 15.8833 -64.8833 141° Southeast 500 575 41,000  Level San Juan Center
Sun 11:15:47 PM 15.6833 -64.7167 141° Southeast 500 575 41,000 33 Level San Juan Center
Sun 11:16:47 PM 15.5667 -64.6167 140° Southeast 500 575 41,100 50 Climbing San Juan Center
Sun 11:17:47 PM 15.4667 -64.5333 141° Southeast 490 564 41,100  Level San Juan Center
Sun 11:18:47 PM 15.3667 -64.4500 141° Southeast 500 575 41,100  Level San Juan Center
Sun 11:19:47 PM 15.2500 -64.3500 140° Southeast 500 575 41,100 150 Level San Juan Center
Sun 11:20:47 PM 15.1500 -64.2667 141° Southeast 500 575 41,400 300 Climbing San Juan Center
Sun 11:22:00 PM 15.0337 -64.1671 136° Southeast  Level FlightAware Approximate
Sun 11:29:00 PM 14.2921 -63.7027 149° Southeast  Level FlightAware Approximate
Sun 11:30:00 PM 14.1851 -63.6379 150° Southeast  Level FlightAware Approximate
Sun 11:31:00 PM 14.0783 -63.5727 149° Southeast  Level FlightAware Approximate
Sun 11:32:00 PM 13.9717 -63.5073 149° Southeast  Level FlightAware Approximate
Sun 11:33:00 PM 13.8651 -63.4420 149° Southeast  Level FlightAware Approximate
Sun 11:34:00 PM 13.7584 -63.3768 149° Southeast  Level FlightAware Approximate
Sun 11:35:00 PM 13.6518 -63.3116 149° Southeast  Level FlightAware Approximate
Sun 11:36:00 PM 13.5451 -63.2464 149° Southeast  Level FlightAware Approximate
Sun 11:37:00 PM 13.4384 -63.1814 149° Southeast  Level FlightAware Approximate
Sun 11:38:00 PM 13.3317 -63.1164 149° Southeast  Level FlightAware Approximate
Sun 11:39:00 PM 13.2250 -63.0513 149° Southeast  Level FlightAware Approximate
Sun 11:40:00 PM 13.1185 -62.9860 149° Southeast  Level FlightAware Approximate
Sun 11:41:00 PM 13.0119 -62.9208 149° Southeast  Level FlightAware Approximate
Sun 11:42:00 PM 12.9053 -62.8556 149° Southeast  Level FlightAware Approximate
Sun 11:43:00 PM 12.7988 -62.7905 149° Southeast  Level FlightAware Approximate
Sun 11:44:00 PM 12.6922 -62.7255 149° Southeast  Level FlightAware Approximate
Sun 11:45:00 PM 12.5856 -62.6604 149° Southeast  Level FlightAware Approximate
Sun 11:46:00 PM 12.4789 -62.5955 149° Southeast  Level FlightAware Approximate
Sun 11:47:00 PM 12.3723 -62.5306 149° Southeast  Level FlightAware Approximate
Sun 11:48:00 PM 12.2657 -62.4658 149° Southeast  Level FlightAware Approximate
Sun 11:49:00 PM 12.1590 -62.4010 149° Southeast  Level FlightAware Approximate
Sun 11:50:00 PM 12.0523 -62.3362 149° Southeast  Level FlightAware Approximate
Sun 11:51:00 PM 11.9456 -62.2715 149° Southeast  Level FlightAware Approximate
Sun 11:52:00 PM 11.8389 -62.2069 149° Southeast  Level FlightAware Approximate
Sun 11:53:00 PM 11.7319 -62.1428 150° Southeast  Level FlightAware Approximate
Sun 11:54:00 PM 11.6247 -62.0790 150° Southeast  Level FlightAware Approximate
Sun 11:55:00 PM 11.5175 -62.0152 150° Southeast  Level FlightAware Approximate
Sun 11:56:00 PM 11.4103 -61.9515 150° Southeast  Level FlightAware Approximate
Sun 11:57:00 PM 11.3031 -61.8879 150° Southeast  Level FlightAware Approximate
Sun 11:58:00 PM 11.1959 -61.8243 150° Southeast  Level FlightAware Approximate
Sun 11:59:00 PM 11.0886 -61.7607 150° Southeast  Level FlightAware Approximate
Mon 12:00:00 AM 10.9814 -61.6972 150° Southeast  Level FlightAware Approximate
Mon 12:01:00 AM 10.8741 -61.6337 150° Southeast  Level FlightAware Approximate
Mon 12:02:00 AM 10.7669 -61.5703 150° Southeast  Level FlightAware Approximate
Mon 12:03:00 AM 10.6596 -61.5070 150° Southeast  Level FlightAware Approximate
Mon 12:04:00 AM 10.5522 -61.4436 150° Southeast  Level FlightAware Approximate
Mon 12:05:00 AM 10.4464 -61.3787 128° Southeast  Level FlightAware Approximate
Mon 12:06:00 AM 10.3693 -61.2799 128° Southeast  Level FlightAware Approximate
Mon 12:07:00 AM 10.2921 -61.1811 128° Southeast  Level FlightAware Approximate
Mon 12:08:00 AM 10.2150 -61.0824 128° Southeast  Level FlightAware Approximate
Mon 12:09:00 AM 10.1378 -60.9837 128° Southeast  Level FlightAware Approximate
Mon 12:10:00 AM 10.0606 -60.8851 128° Southeast  Level FlightAware Approximate
Mon 12:11:00 AM 9.9834 -60.7865 129° Southeast  Level FlightAware Approximate
Mon 12:12:00 AM 9.9061 -60.6880 129° Southeast  Level FlightAware Approximate
Mon 12:13:00 AM 9.8288 -60.5895 129° Southeast  Level FlightAware Approximate
Mon 12:14:00 AM 9.7515 -60.4910 129° Southeast  Level FlightAware Approximate
Mon 12:15:00 AM 9.6741 -60.3927 129° Southeast  Level FlightAware Approximate
Mon 12:16:00 AM 9.5968 -60.2943 129° Southeast  Level FlightAware Approximate
Mon 12:17:00 AM 9.5193 -60.1960 129° Southeast  Level FlightAware Approximate
Mon 12:18:00 AM 9.4419 -60.0977 129° Southeast  Level FlightAware Approximate
Mon 12:19:00 AM 9.3644 -59.9995 129° Southeast  Level FlightAware Approximate
Mon 12:20:00 AM 9.2870 -59.9014 129° Southeast  Level FlightAware Approximate
Mon 12:21:00 AM 9.2094 -59.8032 129° Southeast  Level FlightAware Approximate
Mon 12:22:00 AM 9.1319 -59.7052 129° Southeast  Level FlightAware Approximate
Mon 12:23:00 AM 9.0543 -59.6071 129° Southeast  Level FlightAware Approximate
Mon 12:24:00 AM 8.9767 -59.5091 129° Southeast  Level FlightAware Approximate
Mon 12:25:00 AM 8.8984 -59.4117 131° Southeast  Level FlightAware Approximate
Mon 12:26:00 AM 8.8177 -59.3164 131° Southeast  Level FlightAware Approximate
Mon 12:27:00 AM 8.7370 -59.2210 131° Southeast  Level FlightAware Approximate
Mon 12:28:00 AM 8.6602 -59.1225 128° Southeast  Level FlightAware Approximate
Mon 12:29:00 AM 8.5835 -59.0239 128° Southeast  Level FlightAware Approximate
Mon 12:30:00 AM 8.5068 -58.9253 128° Southeast  Level FlightAware Approximate
Mon 12:31:00 AM 8.3941 -58.8764 159° South  Level FlightAware Approximate
Mon 12:32:00 AM 8.2780 -58.8322 159° South  Level FlightAware Approximate
Mon 12:33:00 AM 8.1619 -58.7881 159° South  Level FlightAware Approximate
Mon 12:34:00 AM 8.0458 -58.7440 159° South  Level FlightAware Approximate
Mon 12:35:00 AM 7.9297 -58.6999 159° South  Level FlightAware Approximate
Mon 12:36:00 AM 7.8135 -58.6559 159° South  Level FlightAware Approximate
Mon 12:37:00 AM 7.6974 -58.6119 159° South  Level FlightAware Approximate
Mon 12:38:00 AM 7.5813 -58.5679 159° South  Level FlightAware Approximate
Mon 12:39:00 AM 7.4651 -58.5239 159° South  Level FlightAware Approximate
Mon 12:40:00 AM 7.3490 -58.4799 159° South  Level FlightAware Approximate
Mon 12:41:00 AM 7.2328 -58.4360 159° South  Level FlightAware Approximate
Mon 12:42:00 AM 7.1167 -58.3921 159° South  Level FlightAware Approximate
Mon 12:43:00 AM 7.0005 -58.3482 159° South  Level FlightAware Approximate
Mon 12:44:00 AM 6.8844 -58.3044 159° South  Level FlightAware Approximate
Mon 12:45:00 AM 6.7682 -58.2605 159° South  Level FlightAware Approximate
Mon 12:46:00 AM 6.6520 -58.2167 159° South  Level FlightAware Approximate
Mon 12:47:00 AM 6.5359 -58.1729 159° South  Level FlightAware Approximate
Mon 12:48:00 AM 6.4197 -58.1291 159° South  Level FlightAware Approximate
Mon 12:49:00 AM 6.3035 -58.0854 159° South  Level FlightAware Approximate
Mon 12:50:00 AM 6.1873 -58.0416 159° South  Level FlightAware Approximate
Mon 12:51:00 AM 6.0711 -57.9979 159° South  Level FlightAware Approximate
Mon 12:52:00 AM 5.9549 -57.9542 159° South  Level FlightAware Approximate
Mon 12:53:00 AM 5.8388 -57.9105 159° South  Level FlightAware Approximate
Mon 12:54:00 AM 5.7226 -57.8669 159° South  Level FlightAware Approximate
Mon 12:55:00 AM 5.6064 -57.8232 160° South  Level FlightAware Approximate
Mon 12:56:00 AM 5.4902 -57.7796 160° South  Level FlightAware Approximate
Mon 12:57:00 AM 5.3740 -57.7360 160° South  Level FlightAware Approximate
Mon 12:58:00 AM 5.2577 -57.6924 160° South  Level FlightAware Approximate
Mon 12:59:00 AM 5.1415 -57.6488 160° South  Level FlightAware Approximate
Mon 01:00:00 AM 5.0253 -57.6052 160° South  Level FlightAware Approximate
Mon 01:01:00 AM 4.9091 -57.5617 160° South  Level FlightAware Approximate
Mon 01:02:00 AM 4.7929 -57.5181 160° South  Level FlightAware Approximate
Mon 01:03:00 AM 4.6767 -57.4746 160° South  Level FlightAware Approximate
Mon 01:04:00 AM 4.5604 -57.4311 160° South  Level FlightAware Approximate
Mon 01:05:00 AM 4.4442 -57.3876 160° South  Level FlightAware Approximate
Mon 01:06:00 AM 4.3280 -57.3442 160° South  Level FlightAware Approximate
Mon 01:07:00 AM 4.2117 -57.3007 160° South  Level FlightAware Approximate
Mon 01:08:00 AM 4.0955 -57.2572 160° South  Level FlightAware Approximate
Mon 01:09:00 AM 3.9792 -57.2138 160° South  Level FlightAware Approximate
Mon 01:10:00 AM 3.8630 -57.1704 160° South  Level FlightAware Approximate
Mon 01:11:00 AM 3.7468 -57.1270 160° South  Level FlightAware Approximate
Mon 01:12:00 AM 3.6305 -57.0836 160° South  Level FlightAware Approximate
Mon 01:13:00 AM 3.5143 -57.0402 160° South  Level FlightAware Approximate
Mon 01:14:00 AM 3.3980 -56.9968 160° South  Level FlightAware Approximate
Mon 01:15:00 AM 3.2818 -56.9534 160° South  Level FlightAware Approximate
Mon 01:16:00 AM 3.1655 -56.9101 160° South  Level FlightAware Approximate
Mon 01:17:00 AM 3.0493 -56.8667 160° South  Level FlightAware Approximate
Mon 01:18:00 AM 2.9330 -56.8234 160° South  Level FlightAware Approximate
Mon 01:19:00 AM 2.8167 -56.7800 160° South  Level FlightAware Approximate
Mon 01:20:00 AM 2.7005 -56.7367 160° South  Level FlightAware Approximate
Mon 01:21:00 AM 2.5842 -56.6934 160° South  Level FlightAware Approximate
Mon 01:22:00 AM 2.4680 -56.6501 160° South  Level FlightAware Approximate
Mon 01:23:00 AM 2.3517 -56.6068 160° South  Level FlightAware Approximate
Mon 01:24:00 AM 2.2354 -56.5635 160° South  Level FlightAware Approximate
Mon 01:25:00 AM 2.1192 -56.5202 160° South  Level FlightAware Approximate
Mon 01:26:00 AM 2.0029 -56.4770 160° South  Level FlightAware Approximate
Mon 01:27:00 AM 1.8866 -56.4337 160° South  Level FlightAware Approximate
Mon 01:28:00 AM 1.7703 -56.3904 160° South  Level FlightAware Approximate
Mon 01:29:00 AM 1.6541 -56.3471 160° South  Level FlightAware Approximate
Mon 01:30:00 AM 1.5378 -56.3039 160° South  Level FlightAware Approximate
Mon 01:31:00 AM 1.4215 -56.2606 160° South  Level FlightAware Approximate
Mon 01:32:00 AM 1.3053 -56.2174 160° South  Level FlightAware Approximate
Mon 01:33:00 AM 1.1890 -56.1741 160° South  Level FlightAware Approximate
Mon 01:34:00 AM 1.0727 -56.1309 160° South  Level FlightAware Approximate
Mon 01:35:00 AM 0.9564 -56.0877 160° South  Level FlightAware Approximate
Mon 01:36:00 AM 0.8402 -56.0444 160° South  Level FlightAware Approximate
Mon 01:37:00 AM 0.7239 -56.0012 160° South  Level FlightAware Approximate
Mon 01:38:00 AM 0.6076 -55.9580 160° South  Level FlightAware Approximate
Mon 01:39:00 AM 0.4913 -55.9147 160° South  Level FlightAware Approximate
Mon 01:40:00 AM 0.3750 -55.8715 160° South  Level FlightAware Approximate
Mon 01:41:00 AM 0.2588 -55.8283 160° South  Level FlightAware Approximate
Mon 01:42:00 AM 0.1425 -55.7851 160° South  Level FlightAware Approximate
Mon 01:43:00 AM 0.0262 -55.7419 160° South  Level FlightAware Approximate
Mon 01:44:00 AM -0.0901 -55.6987 160° South  Level FlightAware Approximate
Mon 01:45:00 AM -0.2064 -55.6554 160° South  Level FlightAware Approximate
Mon 01:46:00 AM -0.3226 -55.6122 160° South  Level FlightAware Approximate
Mon 01:47:00 AM -0.4389 -55.5690 160° South  Level FlightAware Approximate
Mon 01:48:00 AM -0.5552 -55.5258 160° South  Level FlightAware Approximate
Mon 01:49:00 AM -0.6715 -55.4825 160° South  Level FlightAware Approximate
Mon 01:50:00 AM -0.7878 -55.4393 160° South  Level FlightAware Approximate
Mon 01:51:00 AM -0.9040 -55.3961 160° South  Level FlightAware Approximate
Mon 01:52:00 AM -1.0203 -55.3528 160° South  Level FlightAware Approximate
Mon 01:53:00 AM -1.1366 -55.3096 160° South  Level FlightAware Approximate
Mon 01:54:00 AM -1.2529 -55.2664 160° South  Level FlightAware Approximate
Mon 01:55:00 AM -1.3692 -55.2231 160° South  Level FlightAware Approximate
Mon 01:56:00 AM -1.4854 -55.1799 160° South  Level FlightAware Approximate
Mon 01:57:00 AM -1.6017 -55.1366 160° South  Level FlightAware Approximate
Mon 01:58:00 AM -1.7180 -55.0933 160° South  Level FlightAware Approximate
Mon 01:59:00 AM -1.8342 -55.0501 160° South  Level FlightAware Approximate
Mon 02:00:00 AM -1.9505 -55.0068 160° South  Level FlightAware Approximate
Mon 02:01:00 AM -2.0668 -54.9635 160° South  Level FlightAware Approximate
Mon 02:02:00 AM -2.1830 -54.9203 160° South  Level FlightAware Approximate
Mon 02:03:00 AM -2.2993 -54.8770 160° South  Level FlightAware Approximate
Mon 02:04:00 AM -2.4156 -54.8337 160° South  Level FlightAware Approximate
Mon 02:05:00 AM -2.5318 -54.7904 160° South  Level FlightAware Approximate
Mon 02:06:00 AM -2.6481 -54.7471 160° South  Level FlightAware Approximate
Mon 02:07:00 AM -2.7644 -54.7037 160° South  Level FlightAware Approximate
Mon 02:08:00 AM -2.8806 -54.6604 160° South  Level FlightAware Approximate
Mon 02:09:00 AM -2.9969 -54.6171 160° South  Level FlightAware Approximate
Mon 02:10:00 AM -3.1131 -54.5737 160° South  Level FlightAware Approximate
Mon 02:11:00 AM -3.2294 -54.5304 160° South  Level FlightAware Approximate
Mon 02:12:00 AM -3.3456 -54.4870 160° South  Level FlightAware Approximate
Mon 02:13:00 AM -3.4619 -54.4436 160° South  Level FlightAware Approximate
Mon 02:14:00 AM -3.5781 -54.4002 160° South  Level FlightAware Approximate
Mon 02:15:00 AM -3.6944 -54.3568 160° South  Level FlightAware Approximate
Mon 02:16:00 AM -3.8106 -54.3134 160° South  Level FlightAware Approximate
Mon 02:17:00 AM -3.9269 -54.2700 160° South  Level FlightAware Approximate
Mon 02:18:00 AM -4.0431 -54.2266 160° South  Level FlightAware Approximate
Mon 02:19:00 AM -4.1593 -54.1831 160° South  Level FlightAware Approximate
Mon 02:20:00 AM -4.2756 -54.1397 160° South  Level FlightAware Approximate
Mon 02:21:00 AM -4.3918 -54.0962 160° South  Level FlightAware Approximate
Mon 02:22:00 AM -4.5080 -54.0527 160° South  Level FlightAware Approximate
Mon 02:23:00 AM -4.6243 -54.0092 160° South  Level FlightAware Approximate
Mon 02:24:00 AM -4.7405 -53.9657 160° South  Level FlightAware Approximate
Mon 02:25:00 AM -4.8567 -53.9222 160° South  Level FlightAware Approximate
Mon 02:26:00 AM -4.9729 -53.8786 160° South  Level FlightAware Approximate
Mon 02:27:00 AM -5.0892 -53.8351 160° South  Level FlightAware Approximate
Mon 02:28:00 AM -5.2054 -53.7915 160° South  Level FlightAware Approximate
Mon 02:29:00 AM -5.3216 -53.7479 160° South  Level FlightAware Approximate
Mon 02:30:00 AM -5.4378 -53.7043 160° South  Level FlightAware Approximate
Mon 02:31:00 AM -5.5540 -53.6607 160° South  Level FlightAware Approximate
Mon 02:32:00 AM -5.6702 -53.6170 160° South  Level FlightAware Approximate
Mon 02:33:00 AM -5.7864 -53.5734 160° South  Level FlightAware Approximate
Mon 02:34:00 AM -5.9026 -53.5297 160° South  Level FlightAware Approximate
Mon 02:35:00 AM -6.0188 -53.4860 159° South  Level FlightAware Approximate
Mon 02:36:00 AM -6.1350 -53.4423 159° South  Level FlightAware Approximate
Mon 02:37:00 AM -6.2511 -53.3986 159° South  Level FlightAware Approximate
Mon 02:38:00 AM -6.3673 -53.3548 159° South  Level FlightAware Approximate
Mon 02:39:00 AM -6.4835 -53.3111 159° South  Level FlightAware Approximate
Mon 02:40:00 AM -6.5997 -53.2673 159° South  Level FlightAware Approximate
Mon 02:41:00 AM -6.7158 -53.2234 159° South  Level FlightAware Approximate
Mon 02:42:00 AM -6.8320 -53.1796 159° South  Level FlightAware Approximate
Mon 02:43:00 AM -6.9482 -53.1358 159° South  Level FlightAware Approximate
Mon 02:44:00 AM -7.0643 -53.0919 159° South  Level FlightAware Approximate
Mon 02:45:00 AM -7.1805 -53.0480 159° South  Level FlightAware Approximate
Mon 02:46:00 AM -7.2966 -53.0041 159° South  Level FlightAware Approximate
Mon 02:47:00 AM -7.4128 -52.9601 159° South  Level FlightAware Approximate
Mon 02:48:00 AM -7.5289 -52.9162 159° South  Level FlightAware Approximate
Mon 02:49:00 AM -7.6451 -52.8722 159° South  Level FlightAware Approximate
Mon 02:50:00 AM -7.7612 -52.8282 159° South  Level FlightAware Approximate
Mon 02:51:00 AM -7.8773 -52.7841 159° South  Level FlightAware Approximate
Mon 02:52:00 AM -7.9934 -52.7401 159° South  Level FlightAware Approximate
Mon 02:53:00 AM -8.1096 -52.6960 159° South  Level FlightAware Approximate
Mon 02:54:00 AM -8.2257 -52.6519 159° South  Level FlightAware Approximate
Mon 02:55:00 AM -8.3418 -52.6077 159° South  Level FlightAware Approximate
Mon 02:56:00 AM -8.4579 -52.5636 159° South  Level FlightAware Approximate
Mon 02:57:00 AM -8.5740 -52.5194 159° South  Level FlightAware Approximate
Mon 02:58:00 AM -8.6901 -52.4752 159° South  Level FlightAware Approximate
Mon 02:59:00 AM -8.8062 -52.4309 159° South  Level FlightAware Approximate
Mon 03:00:00 AM -8.9222 -52.3866 159° South  Level FlightAware Approximate
Mon 03:01:00 AM -9.0383 -52.3423 159° South  Level FlightAware Approximate
Mon 03:02:00 AM -9.1544 -52.2980 159° South  Level FlightAware Approximate
Mon 03:03:00 AM -9.2704 -52.2536 159° South  Level FlightAware Approximate
Mon 03:04:00 AM -9.3865 -52.2093 159° South  Level FlightAware Approximate
Mon 03:05:00 AM -9.5026 -52.1648 159° South  Level FlightAware Approximate
Mon 03:06:00 AM -9.6186 -52.1204 159° South  Level FlightAware Approximate
Mon 03:07:00 AM -9.7347 -52.0759 159° South  Level FlightAware Approximate
Mon 03:08:00 AM -9.8507 -52.0314 159° South  Level FlightAware Approximate
Mon 03:09:00 AM -9.9667 -51.9869 159° South  Level FlightAware Approximate
Mon 03:10:00 AM -10.0828 -51.9423 159° South  Level FlightAware Approximate
Mon 03:11:00 AM -10.1988 -51.8977 159° South  Level FlightAware Approximate
Mon 03:12:00 AM -10.3148 -51.8530 159° South  Level FlightAware Approximate
Mon 03:13:00 AM -10.4308 -51.8084 159° South  Level FlightAware Approximate
Mon 03:14:00 AM -10.5468 -51.7637 159° South  Level FlightAware Approximate
Mon 03:15:00 AM -10.6628 -51.7189 159° South  Level FlightAware Approximate
Mon 03:16:00 AM -10.7788 -51.6741 159° South  Level FlightAware Approximate
Mon 03:17:00 AM -10.8948 -51.6293 159° South  Level FlightAware Approximate
Mon 03:18:00 AM -11.0108 -51.5845 159° South  Level FlightAware Approximate
Mon 03:19:00 AM -11.1267 -51.5396 159° South  Level FlightAware Approximate
Mon 03:20:00 AM -11.2427 -51.4947 159° South  Level FlightAware Approximate
Mon 03:21:00 AM -11.3587 -51.4498 159° South  Level FlightAware Approximate
Mon 03:22:00 AM -11.4746 -51.4048 159° South  Level FlightAware Approximate
Mon 03:23:00 AM -11.5905 -51.3598 159° South  Level FlightAware Approximate
Mon 03:24:00 AM -11.7065 -51.3147 159° South  Level FlightAware Approximate
Mon 03:25:00 AM -11.8224 -51.2696 159° South  Level FlightAware Approximate
Mon 03:26:00 AM -11.9383 -51.2245 159° South  Level FlightAware Approximate
Mon 03:27:00 AM -12.0542 -51.1793 159° South  Level FlightAware Approximate
Mon 03:28:00 AM -12.1702 -51.1341 159° South  Level FlightAware Approximate
Mon 03:29:00 AM -12.2861 -51.0888 159° South  Level FlightAware Approximate
Mon 03:30:00 AM -12.4019 -51.0435 159° South  Level FlightAware Approximate
Mon 03:31:00 AM -12.5178 -50.9982 159° South  Level FlightAware Approximate
Mon 03:32:00 AM -12.6337 -50.9528 159° South  Level FlightAware Approximate
Mon 03:33:00 AM -12.7496 -50.9074 159° South  Level FlightAware Approximate
Mon 03:34:00 AM -12.8654 -50.8620 159° South  Level FlightAware Approximate
Mon 03:35:00 AM -12.9813 -50.8165 159° South  Level FlightAware Approximate
Mon 03:36:00 AM -13.0972 -50.7709 159° South  Level FlightAware Approximate
Mon 03:37:00 AM -13.2130 -50.7253 159° South  Level FlightAware Approximate
Mon 03:38:00 AM -13.3288 -50.6797 159° South  Level FlightAware Approximate
Mon 03:39:00 AM -13.4446 -50.6340 159° South  Level FlightAware Approximate
Mon 03:40:00 AM -13.5605 -50.5883 159° South  Level FlightAware Approximate
Mon 03:41:00 AM -13.6763 -50.5426 159° South  Level FlightAware Approximate
Mon 03:42:00 AM -13.7921 -50.4968 159° South  Level FlightAware Approximate
Mon 03:43:00 AM -13.9079 -50.4509 159° South  Level FlightAware Approximate
Mon 03:44:00 AM -14.0236 -50.4050 159° South  Level FlightAware Approximate
Mon 03:45:00 AM -14.1394 -50.3591 159° South  Level FlightAware Approximate
Mon 03:46:00 AM -14.2552 -50.3131 159° South  Level FlightAware Approximate
Mon 03:47:00 AM -14.3709 -50.2671 159° South  Level FlightAware Approximate
Mon 03:48:00 AM -14.4867 -50.2210 159° South  Level FlightAware Approximate
Mon 03:49:00 AM -14.6024 -50.1749 159° South  Level FlightAware Approximate
Mon 03:50:00 AM -14.7181 -50.1287 159° South  Level FlightAware Approximate
Mon 03:51:00 AM -14.8339 -50.0824 159° South  Level FlightAware Approximate
Mon 03:52:00 AM -14.9496 -50.0362 159° South  Level FlightAware Approximate
Mon 03:53:00 AM -15.0653 -49.9898 159° South  Level FlightAware Approximate
Mon 03:54:00 AM -15.1810 -49.9435 159° South  Level FlightAware Approximate
Mon 03:55:00 AM -15.2966 -49.8970 159° South  Level FlightAware Approximate
Mon 03:56:00 AM -15.4123 -49.8505 159° South  Level FlightAware Approximate
Mon 03:57:00 AM -15.5280 -49.8040 159° South  Level FlightAware Approximate
Mon 03:58:00 AM -15.6436 -49.7574 159° South  Level FlightAware Approximate
Mon 03:59:00 AM -15.7593 -49.7108 159° South  Level FlightAware Approximate
Mon 04:00:00 AM -15.8749 -49.6641 159° South  Level FlightAware Approximate
Mon 04:01:00 AM -15.9905 -49.6174 159° South  Level FlightAware Approximate
Mon 04:02:00 AM -16.1061 -49.5705 159° South  Level FlightAware Approximate
Mon 04:03:00 AM -16.2217 -49.5237 159° South  Level FlightAware Approximate
Mon 04:04:00 AM -16.3373 -49.4768 159° South  Level FlightAware Approximate
Mon 04:05:00 AM -16.4529 -49.4298 159° South  Level FlightAware Approximate
Mon 04:06:00 AM -16.5685 -49.3828 159° South  Level FlightAware Approximate
Mon 04:07:00 AM -16.6840 -49.3357 159° South  Level FlightAware Approximate
Mon 04:08:00 AM -16.7996 -49.2886 159° South  Level FlightAware Approximate
Mon 04:09:00 AM -16.9151 -49.2414 159° South  Level FlightAware Approximate
Mon 04:10:00 AM -17.0306 -49.1942 159° South  Level FlightAware Approximate
Mon 04:11:00 AM -17.1462 -49.1469 159° South  Level FlightAware Approximate
Mon 04:12:00 AM -17.2617 -49.0995 159° South  Level FlightAware Approximate
Mon 04:13:00 AM -17.3772 -49.0521 159° South  Level FlightAware Approximate
Mon 04:14:00 AM -17.4926 -49.0046 159° South  Level FlightAware Approximate
Mon 04:15:00 AM -17.6081 -48.9570 159° South  Level FlightAware Approximate
Mon 04:16:00 AM -17.7236 -48.9094 159° South  Level FlightAware Approximate
Mon 04:17:00 AM -17.8390 -48.8617 159° South  Level FlightAware Approximate
Mon 04:18:00 AM -17.9545 -48.8140 159° South  Level FlightAware Approximate
Mon 04:19:00 AM -18.0699 -48.7662 159° South  Level FlightAware Approximate
Mon 04:20:00 AM -18.1853 -48.7184 159° South  Level FlightAware Approximate
Mon 04:21:00 AM -18.3007 -48.6704 158° South  Level FlightAware Approximate
Mon 04:22:00 AM -18.4161 -48.6225 158° South  Level FlightAware Approximate
Mon 04:23:00 AM -18.5315 -48.5744 158° South  Level FlightAware Approximate
Mon 04:24:00 AM -18.6468 -48.5263 158° South  Level FlightAware Approximate
Mon 04:25:00 AM -18.7622 -48.4781 158° South  Level FlightAware Approximate
Mon 04:26:00 AM -18.8775 -48.4299 158° South  Level FlightAware Approximate
Mon 04:27:00 AM -18.9929 -48.3816 158° South  Level FlightAware Approximate
Mon 04:28:00 AM -19.1082 -48.3332 158° South  Level FlightAware Approximate
Mon 04:29:00 AM -19.2235 -48.2848 158° South  Level FlightAware Approximate
Mon 04:30:00 AM -19.3388 -48.2362 158° South  Level FlightAware Approximate
Mon 04:31:00 AM -19.4541 -48.1877 158° South  Level FlightAware Approximate
Mon 04:32:00 AM -19.5693 -48.1390 158° South  Level FlightAware Approximate
Mon 04:33:00 AM -19.6846 -48.0903 158° South  Level FlightAware Approximate
Mon 04:34:00 AM -19.7998 -48.0415 158° South  Level FlightAware Approximate
Mon 04:35:00 AM -19.9150 -47.9926 158° South  Level FlightAware Approximate
Mon 04:36:00 AM -20.0303 -47.9437 158° South  Level FlightAware Approximate
Mon 04:37:00 AM -20.1455 -47.8947 158° South  Level FlightAware Approximate
Mon 04:38:00 AM -20.2606 -47.8456 158° South  Level FlightAware Approximate
Mon 04:39:00 AM -20.3758 -47.7965 158° South  Level FlightAware Approximate
Mon 04:40:00 AM -20.4910 -47.7473 158° South  Level FlightAware Approximate
Mon 04:41:00 AM -20.6061 -47.6980 158° South  Level FlightAware Approximate
Mon 04:42:00 AM -20.7213 -47.6486 158° South  Level FlightAware Approximate
Mon 04:43:00 AM -20.8364 -47.5992 158° South  Level FlightAware Approximate
Mon 04:44:00 AM -20.9515 -47.5496 158° South  Level FlightAware Approximate
Mon 04:45:00 AM -21.0666 -47.5000 158° South  Level FlightAware Approximate
Mon 04:46:00 AM -21.1790 -47.4439 155° Southeast  Level FlightAware Approximate
Mon 04:47:00 AM -21.2940 -47.3946 161° South  Level FlightAware Approximate
Mon 04:48:00 AM -21.4115 -47.3519 161° South  Level FlightAware Approximate
Mon 04:49:00 AM -21.5257 -47.2997 157° South  Level FlightAware Approximate
Mon 04:50:00 AM -21.6398 -47.2474 160° South  Level FlightAware Approximate
Mon 04:51:00 AM -21.7524 -47.1929 148° Southeast  Level FlightAware Approximate
Mon 04:52:00 AM -21.8663 -47.1407 158° South  Level FlightAware Approximate
Mon 04:53:00 AM -21.9816 -47.0912 158° South  Level FlightAware Approximate
Mon 04:54:00 AM -22.0978 -47.0443 160° South  Level FlightAware Approximate
Mon 04:55:00 AM -22.2141 -46.9977 160° South  Level FlightAware Approximate
Mon 04:56:00 AM -22.3289 -46.9470 157° South  Level FlightAware Approximate
Mon 04:57:00 AM -22.4430 -46.8944 157° South  Level FlightAware Approximate
Mon 04:58:00 AM -22.5571 -46.8417 157° South  Level FlightAware Approximate
Mon 04:59:00 AM -22.6712 -46.7890 157° South  Level FlightAware Approximate
Mon 05:00:00 AM -22.7859 -46.7378 158° South  Level FlightAware Approximate
Mon 05:01:00 AM -22.9013 -46.6884 159° South  Level FlightAware Approximate
Mon 05:02:00 AM -23.0171 -46.6401 159° South  Level FlightAware Approximate
Mon 05:03:00 AM -23.1335 -46.5933 160° South  Level FlightAware Approximate
Mon 05:04:00 AM -23.2453 -46.5365 149° Southeast  Level FlightAware Approximate
Mon 05:05:00 AM -23.3619 -46.4940 155° Southeast  Level FlightAware Approximate
Mon 05:06:00 AM -23.4167 -46.4667 155° Southeast  Level FlightAware Approximate
Mon 05:07:00 AM -23.4321 -46.4695 155° Southeast  Level Estimated
Mon 05:08:00 AM -23.4321 -46.4695 155° Southeast  Level Estimated
Mon 05:09:00 AM -23.4321 -46.4695 155° Southeast  Level Estimated
Mon 05:10:00 AM -23.4321 -46.4695 155° Southeast  Level Estimated
Mon 05:11:00 AM -23.4321 -46.4695 155° Southeast  Level Estimated
Mon 05:12:00 AM -23.4321 -46.4695 155° Southeast  Level Estimated
Mon 05:13:00 AM -23.4321 -46.4695 155° Southeast  Level Estimated
Mon 05:14:00 AM -23.4321 -46.4695 155° Southeast  Level Estimated
Mon 05:15:00 AM -23.4321 -46.4695 155° Southeast  Level Estimated
Mon 05:16:00 AM -23.4321 -46.4695 155° Southeast  Level Estimated
Mon 05:17:00 AM -23.4321 -46.4695 155° Southeast  Level Estimated
Mon 05:18:00 AM -23.4321 -46.4695 155° Southeast  Level Estimated
Mon 05:19:00 AM -23.4321 -46.4695 155° Southeast  Level Estimated
Mon 05:20:00 AM -23.4321 -46.4695 155° Southeast  Level Estimated
Mon 05:21:00 AM -23.4321 -46.4695 155° Southeast  Level Estimated
Mon 05:22:00 AM -23.4321 -46.4695 155° Southeast  Level Estimated
Mon 05:23:00 AM -23.4321 -46.4695 155° Southeast  Level Estimated
Mon 05:24:00 AM -23.4321 -46.4695 155° Southeast  Level Estimated
Mon 05:25:00 AM -23.4321 -46.4695 155° Southeast  Level Estimated
Mon 05:26:00 AM -23.4321 -46.4695 155° Southeast  Level Estimated
Mon 05:27:00 AM -23.4321 -46.4695 155° Southeast  Level Estimated
Mon 05:28:00 AM -23.4321 -46.4695 155° Southeast  Level Estimated
Mon 05:29:00 AM -23.4321 -46.4695 155° Southeast  Level Estimated

Login

Don't have an account? Register now (free) for customized features, flight alerts, and more!